sensor_id;sensor_type;location;lat;lon;timestamp;temperature;humidity
42095;DHT22;27753;55.724;37.612;2023-02-28T00:00:50;-6.10;99.60
42095;DHT22;27753;55.724;37.612;2023-02-28T00:03:16;-6.10;99.70
42095;DHT22;27753;55.724;37.612;2023-02-28T00:05:42;-6.10;99.70
42095;DHT22;27753;55.724;37.612;2023-02-28T00:08:08;-6.10;99.60
42095;DHT22;27753;55.724;37.612;2023-02-28T00:10:34;-6.10;99.70
42095;DHT22;27753;55.724;37.612;2023-02-28T00:13:04;-6.10;99.70
42095;DHT22;27753;55.724;37.612;2023-02-28T00:15:31;-6.10;99.70
42095;DHT22;27753;55.724;37.612;2023-02-28T00:17:57;-6.10;99.70
42095;DHT22;27753;55.724;37.612;2023-02-28T00:20:23;-6.20;99.70
42095;DHT22;27753;55.724;37.612;2023-02-28T00:22:52;-6.20;99.70
42095;DHT22;27753;55.724;37.612;2023-02-28T00:25:20;-6.20;99.70
42095;DHT22;27753;55.724;37.612;2023-02-28T00:27:47;-6.20;99.80
42095;DHT22;27753;55.724;37.612;2023-02-28T00:30:18;-6.20;99.80
42095;DHT22;27753;55.724;37.612;2023-02-28T00:32:44;-6.30;99.80
42095;DHT22;27753;55.724;37.612;2023-02-28T00:35:11;-6.20;99.90
42095;DHT22;27753;55.724;37.612;2023-02-28T00:37:37;-6.20;99.90
42095;DHT22;27753;55.724;37.612;2023-02-28T00:40:05;-6.20;99.90
42095;DHT22;27753;55.724;37.612;2023-02-28T00:42:32;-6.20;99.80
42095;DHT22;27753;55.724;37.612;2023-02-28T00:44:58;-6.30;99.70
42095;DHT22;27753;55.724;37.612;2023-02-28T00:47:25;-6.30;99.70
42095;DHT22;27753;55.724;37.612;2023-02-28T00:49:52;-6.30;99.70
42095;DHT22;27753;55.724;37.612;2023-02-28T00:52:18;-6.40;99.70
42095;DHT22;27753;55.724;37.612;2023-02-28T00:54:43;-6.40;99.80
42095;DHT22;27753;55.724;37.612;2023-02-28T00:57:09;-6.50;99.70
42095;DHT22;27753;55.724;37.612;2023-02-28T00:59:35;-6.50;99.70
42095;DHT22;27753;55.724;37.612;2023-02-28T01:02:01;-6.50;99.80
42095;DHT22;27753;55.724;37.612;2023-02-28T01:04:27;-6.50;99.70
42095;DHT22;27753;55.724;37.612;2023-02-28T01:06:53;-6.50;99.70
42095;DHT22;27753;55.724;37.612;2023-02-28T01:09:19;-6.60;99.70
42095;DHT22;27753;55.724;37.612;2023-02-28T01:11:45;-6.50;99.70
42095;DHT22;27753;55.724;37.612;2023-02-28T01:14:14;-6.60;99.70
42095;DHT22;27753;55.724;37.612;2023-02-28T01:16:40;-6.60;99.80
42095;DHT22;27753;55.724;37.612;2023-02-28T01:19:06;-6.60;99.70
42095;DHT22;27753;55.724;37.612;2023-02-28T01:21:32;-6.60;99.60
42095;DHT22;27753;55.724;37.612;2023-02-28T01:23:58;-6.70;99.50
42095;DHT22;27753;55.724;37.612;2023-02-28T01:26:24;-6.80;99.60
42095;DHT22;27753;55.724;37.612;2023-02-28T01:28:52;-6.80;99.70
42095;DHT22;27753;55.724;37.612;2023-02-28T01:31:19;-6.80;99.70
42095;DHT22;27753;55.724;37.612;2023-02-28T01:33:46;-6.80;99.70
42095;DHT22;27753;55.724;37.612;2023-02-28T01:36:18;-6.80;99.80
42095;DHT22;27753;55.724;37.612;2023-02-28T01:38:45;-6.90;99.70
42095;DHT22;27753;55.724;37.612;2023-02-28T01:41:23;-6.90;99.80
42095;DHT22;27753;55.724;37.612;2023-02-28T01:46:15;-6.90;99.90
42095;DHT22;27753;55.724;37.612;2023-02-28T01:49:03;-6.90;99.90
42095;DHT22;27753;55.724;37.612;2023-02-28T01:51:46;-6.90;99.90
42095;DHT22;27753;55.724;37.612;2023-02-28T01:54:24;-6.90;99.90
42095;DHT22;27753;55.724;37.612;2023-02-28T01:59:59;-6.90;99.90
42095;DHT22;27753;55.724;37.612;2023-02-28T02:02:27;-6.90;99.90
42095;DHT22;27753;55.724;37.612;2023-02-28T02:05:09;-6.90;99.90
42095;DHT22;27753;55.724;37.612;2023-02-28T02:07:40;-6.90;99.90
42095;DHT22;27753;55.724;37.612;2023-02-28T02:31:12;-6.90;99.90
42095;DHT22;27753;55.724;37.612;2023-02-28T02:34:05;-7.00;99.90
42095;DHT22;27753;55.724;37.612;2023-02-28T02:36:39;-7.00;99.90
42095;DHT22;27753;55.724;37.612;2023-02-28T02:39:36;-7.00;99.90
42095;DHT22;27753;55.724;37.612;2023-02-28T02:42:14;-6.90;99.90
42095;DHT22;27753;55.724;37.612;2023-02-28T02:44:50;-6.90;99.90
42095;DHT22;27753;55.724;37.612;2023-02-28T02:47:20;-6.90;99.90
42095;DHT22;27753;55.724;37.612;2023-02-28T02:49:53;-6.90;99.90
42095;DHT22;27753;55.724;37.612;2023-02-28T02:52:23;-6.90;99.90
42095;DHT22;27753;55.724;37.612;2023-02-28T02:54:51;-6.80;99.90
42095;DHT22;27753;55.724;37.612;2023-02-28T02:57:25;-6.80;99.90
42095;DHT22;27753;55.724;37.612;2023-02-28T02:59:52;-6.80;99.90
42095;DHT22;27753;55.724;37.612;2023-02-28T03:02:20;-6.80;99.90
42095;DHT22;27753;55.724;37.612;2023-02-28T03:04:51;-6.80;99.90
42095;DHT22;27753;55.724;37.612;2023-02-28T03:07:18;-6.80;99.90
42095;DHT22;27753;55.724;37.612;2023-02-28T03:09:57;-6.80;99.90
42095;DHT22;27753;55.724;37.612;2023-02-28T03:12:31;-6.70;99.90
42095;DHT22;27753;55.724;37.612;2023-02-28T03:15:11;-6.80;99.90
42095;DHT22;27753;55.724;37.612;2023-02-28T03:18:07;-6.70;99.90
42095;DHT22;27753;55.724;37.612;2023-02-28T03:26:26;-6.80;99.80
42095;DHT22;27753;55.724;37.612;2023-02-28T03:31:29;-6.80;99.70
42095;DHT22;27753;55.724;37.612;2023-02-28T03:34:29;-6.80;99.70
42095;DHT22;27753;55.724;37.612;2023-02-28T03:37:03;-6.80;99.70
42095;DHT22;27753;55.724;37.612;2023-02-28T03:39:42;-6.80;99.60
42095;DHT22;27753;55.724;37.612;2023-02-28T03:42:14;-6.80;99.60
42095;DHT22;27753;55.724;37.612;2023-02-28T03:44:48;-6.70;99.50
42095;DHT22;27753;55.724;37.612;2023-02-28T03:47:19;-6.70;99.40
42095;DHT22;27753;55.724;37.612;2023-02-28T03:49:58;-6.70;99.40
42095;DHT22;27753;55.724;37.612;2023-02-28T03:52:28;-6.80;99.30
42095;DHT22;27753;55.724;37.612;2023-02-28T03:55:00;-6.70;99.30
42095;DHT22;27753;55.724;37.612;2023-02-28T04:00:38;-6.70;99.20
42095;DHT22;27753;55.724;37.612;2023-02-28T04:03:04;-6.80;99.10
42095;DHT22;27753;55.724;37.612;2023-02-28T04:05:31;-6.80;99.10
42095;DHT22;27753;55.724;37.612;2023-02-28T04:08:08;-6.80;99.20
42095;DHT22;27753;55.724;37.612;2023-02-28T04:10:34;-6.80;99.20
42095;DHT22;27753;55.724;37.612;2023-02-28T04:12:59;-6.80;99.30
42095;DHT22;27753;55.724;37.612;2023-02-28T04:15:25;-6.80;99.30
42095;DHT22;27753;55.724;37.612;2023-02-28T04:17:53;-6.80;99.30
42095;DHT22;27753;55.724;37.612;2023-02-28T04:20:18;-6.70;99.30
42095;DHT22;27753;55.724;37.612;2023-02-28T04:22:44;-6.80;99.20
42095;DHT22;27753;55.724;37.612;2023-02-28T04:25:10;-6.70;99.20
42095;DHT22;27753;55.724;37.612;2023-02-28T04:27:36;-6.70;99.10
42095;DHT22;27753;55.724;37.612;2023-02-28T04:30:02;-6.70;99.10
42095;DHT22;27753;55.724;37.612;2023-02-28T04:32:28;-6.70;99.10
42095;DHT22;27753;55.724;37.612;2023-02-28T04:34:54;-6.70;99.00
42095;DHT22;27753;55.724;37.612;2023-02-28T04:37:20;-6.60;98.90
42095;DHT22;27753;55.724;37.612;2023-02-28T04:39:46;-6.60;98.80
42095;DHT22;27753;55.724;37.612;2023-02-28T04:42:12;-6.60;98.60
42095;DHT22;27753;55.724;37.612;2023-02-28T04:44:39;-6.60;98.40
42095;DHT22;27753;55.724;37.612;2023-02-28T04:47:05;-6.60;98.30
42095;DHT22;27753;55.724;37.612;2023-02-28T04:49:31;-6.50;98.20
42095;DHT22;27753;55.724;37.612;2023-02-28T04:51:57;-6.50;98.20
42095;DHT22;27753;55.724;37.612;2023-02-28T04:54:23;-6.50;98.10
42095;DHT22;27753;55.724;37.612;2023-02-28T04:56:49;-6.50;98.10
42095;DHT22;27753;55.724;37.612;2023-02-28T04:59:15;-6.40;98.00
42095;DHT22;27753;55.724;37.612;2023-02-28T05:01:46;-6.40;97.80
42095;DHT22;27753;55.724;37.612;2023-02-28T05:04:12;-6.40;97.70
42095;DHT22;27753;55.724;37.612;2023-02-28T05:06:38;-6.40;97.60
42095;DHT22;27753;55.724;37.612;2023-02-28T05:09:04;-6.30;97.50
42095;DHT22;27753;55.724;37.612;2023-02-28T05:11:32;-6.30;97.30
42095;DHT22;27753;55.724;37.612;2023-02-28T05:14:08;-6.30;97.20
42095;DHT22;27753;55.724;37.612;2023-02-28T05:16:35;-6.20;97.20
42095;DHT22;27753;55.724;37.612;2023-02-28T05:19:01;-6.20;97.20
42095;DHT22;27753;55.724;37.612;2023-02-28T05:21:30;-6.10;97.10
42095;DHT22;27753;55.724;37.612;2023-02-28T05:23:58;-6.10;96.80
42095;DHT22;27753;55.724;37.612;2023-02-28T05:26:25;-6.10;96.20
42095;DHT22;27753;55.724;37.612;2023-02-28T05:28:51;-6.10;96.30
42095;DHT22;27753;55.724;37.612;2023-02-28T05:31:17;-6.00;96.20
42095;DHT22;27753;55.724;37.612;2023-02-28T05:33:43;-6.00;96.20
42095;DHT22;27753;55.724;37.612;2023-02-28T05:36:09;-6.00;95.90
42095;DHT22;27753;55.724;37.612;2023-02-28T05:38:35;-6.00;95.60
42095;DHT22;27753;55.724;37.612;2023-02-28T05:41:05;-5.90;95.50
42095;DHT22;27753;55.724;37.612;2023-02-28T05:43:31;-5.80;95.50
42095;DHT22;27753;55.724;37.612;2023-02-28T05:45:57;-5.80;95.60
42095;DHT22;27753;55.724;37.612;2023-02-28T05:48:23;-5.70;95.30
42095;DHT22;27753;55.724;37.612;2023-02-28T05:50:49;-5.70;95.10
42095;DHT22;27753;55.724;37.612;2023-02-28T05:53:15;-5.70;95.10
42095;DHT22;27753;55.724;37.612;2023-02-28T05:55:41;-5.70;95.00
42095;DHT22;27753;55.724;37.612;2023-02-28T05:58:07;-5.60;94.90
42095;DHT22;27753;55.724;37.612;2023-02-28T06:00:33;-5.60;94.90
42095;DHT22;27753;55.724;37.612;2023-02-28T06:02:58;-5.50;94.80
42095;DHT22;27753;55.724;37.612;2023-02-28T06:05:27;-5.40;94.50
42095;DHT22;27753;55.724;37.612;2023-02-28T06:07:53;-5.30;94.40
42095;DHT22;27753;55.724;37.612;2023-02-28T06:10:19;-5.20;94.20
42095;DHT22;27753;55.724;37.612;2023-02-28T06:12:45;-5.20;94.10
42095;DHT22;27753;55.724;37.612;2023-02-28T06:15:15;-5.20;94.00
42095;DHT22;27753;55.724;37.612;2023-02-28T06:17:43;-5.20;94.00
42095;DHT22;27753;55.724;37.612;2023-02-28T06:20:10;-5.20;93.80
42095;DHT22;27753;55.724;37.612;2023-02-28T06:22:39;-5.10;93.60
42095;DHT22;27753;55.724;37.612;2023-02-28T06:25:06;-5.00;93.60
42095;DHT22;27753;55.724;37.612;2023-02-28T06:27:33;-4.90;93.60
42095;DHT22;27753;55.724;37.612;2023-02-28T06:29:59;-4.70;93.50
42095;DHT22;27753;55.724;37.612;2023-02-28T06:32:25;-4.50;93.10
42095;DHT22;27753;55.724;37.612;2023-02-28T06:34:51;-4.30;92.70
42095;DHT22;27753;55.724;37.612;2023-02-28T06:37:18;-4.10;92.80
42095;DHT22;27753;55.724;37.612;2023-02-28T06:39:44;-3.80;92.20
42095;DHT22;27753;55.724;37.612;2023-02-28T06:42:10;-3.50;92.20
42095;DHT22;27753;55.724;37.612;2023-02-28T06:44:35;-3.30;91.60
42095;DHT22;27753;55.724;37.612;2023-02-28T06:47:03;-3.20;91.30
42095;DHT22;27753;55.724;37.612;2023-02-28T06:49:30;-3.10;91.20
42095;DHT22;27753;55.724;37.612;2023-02-28T06:51:57;-3.10;90.40
42095;DHT22;27753;55.724;37.612;2023-02-28T06:54:23;-3.30;88.90
42095;DHT22;27753;55.724;37.612;2023-02-28T06:56:49;-3.40;89.10
42095;DHT22;27753;55.724;37.612;2023-02-28T07:02:08;-3.30;90.10
42095;DHT22;27753;55.724;37.612;2023-02-28T07:04:36;-3.20;90.00
42095;DHT22;27753;55.724;37.612;2023-02-28T07:07:05;-3.20;90.10
42095;DHT22;27753;55.724;37.612;2023-02-28T07:09:31;-3.10;90.30
42095;DHT22;27753;55.724;37.612;2023-02-28T07:11:57;-2.90;90.40
42095;DHT22;27753;55.724;37.612;2023-02-28T07:14:23;-2.90;90.40
42095;DHT22;27753;55.724;37.612;2023-02-28T07:16:49;-2.80;90.30
42095;DHT22;27753;55.724;37.612;2023-02-28T07:19:15;-2.90;90.40
42095;DHT22;27753;55.724;37.612;2023-02-28T07:21:41;-2.80;90.60
42095;DHT22;27753;55.724;37.612;2023-02-28T07:24:07;-2.70;90.20
42095;DHT22;27753;55.724;37.612;2023-02-28T07:26:33;-2.80;90.40
42095;DHT22;27753;55.724;37.612;2023-02-28T07:28:59;-2.60;90.80
42095;DHT22;27753;55.724;37.612;2023-02-28T07:31:25;-2.60;90.60
42095;DHT22;27753;55.724;37.612;2023-02-28T07:33:51;-2.50;90.70
42095;DHT22;27753;55.724;37.612;2023-02-28T07:36:17;-2.40;90.70
42095;DHT22;27753;55.724;37.612;2023-02-28T07:38:47;-2.30;90.70
42095;DHT22;27753;55.724;37.612;2023-02-28T07:41:17;-2.30;90.30
42095;DHT22;27753;55.724;37.612;2023-02-28T07:43:43;-2.20;90.50
42095;DHT22;27753;55.724;37.612;2023-02-28T07:46:12;-2.10;90.50
42095;DHT22;27753;55.724;37.612;2023-02-28T07:48:40;-2.10;90.50
42095;DHT22;27753;55.724;37.612;2023-02-28T07:51:06;-2.00;90.80
42095;DHT22;27753;55.724;37.612;2023-02-28T07:53:33;-1.90;91.00
42095;DHT22;27753;55.724;37.612;2023-02-28T07:56:00;-1.80;90.80
42095;DHT22;27753;55.724;37.612;2023-02-28T07:58:28;-1.70;90.80
42095;DHT22;27753;55.724;37.612;2023-02-28T08:00:55;-1.80;90.00
42095;DHT22;27753;55.724;37.612;2023-02-28T08:03:22;-2.10;90.50
42095;DHT22;27753;55.724;37.612;2023-02-28T08:05:49;-2.20;90.90
42095;DHT22;27753;55.724;37.612;2023-02-28T08:08:15;-2.00;91.20
42095;DHT22;27753;55.724;37.612;2023-02-28T08:10:41;-1.90;91.00
42095;DHT22;27753;55.724;37.612;2023-02-28T08:13:07;-1.90;90.90
42095;DHT22;27753;55.724;37.612;2023-02-28T08:15:33;-1.80;91.00
42095;DHT22;27753;55.724;37.612;2023-02-28T08:17:59;-1.70;91.00
42095;DHT22;27753;55.724;37.612;2023-02-28T08:20:26;-1.60;91.00
42095;DHT22;27753;55.724;37.612;2023-02-28T08:22:52;-1.50;90.70
42095;DHT22;27753;55.724;37.612;2023-02-28T08:25:18;-1.50;90.80
42095;DHT22;27753;55.724;37.612;2023-02-28T08:27:44;-1.40;90.80
42095;DHT22;27753;55.724;37.612;2023-02-28T08:30:11;-1.30;90.80
42095;DHT22;27753;55.724;37.612;2023-02-28T08:32:38;-1.20;90.60
42095;DHT22;27753;55.724;37.612;2023-02-28T08:35:04;-1.00;90.60
42095;DHT22;27753;55.724;37.612;2023-02-28T08:37:30;-1.00;90.10
42095;DHT22;27753;55.724;37.612;2023-02-28T08:39:56;-1.00;90.10
42095;DHT22;27753;55.724;37.612;2023-02-28T08:42:22;-1.10;90.10
42095;DHT22;27753;55.724;37.612;2023-02-28T08:44:48;-1.20;90.20
42095;DHT22;27753;55.724;37.612;2023-02-28T08:47:14;-1.30;90.40
42095;DHT22;27753;55.724;37.612;2023-02-28T08:49:40;-1.40;90.50
42095;DHT22;27753;55.724;37.612;2023-02-28T08:52:06;-1.40;90.80
42095;DHT22;27753;55.724;37.612;2023-02-28T08:54:32;-1.40;90.80
42095;DHT22;27753;55.724;37.612;2023-02-28T08:56:59;-1.50;91.20
42095;DHT22;27753;55.724;37.612;2023-02-28T08:59:25;-1.50;91.10
42095;DHT22;27753;55.724;37.612;2023-02-28T09:01:51;-1.40;91.20
42095;DHT22;27753;55.724;37.612;2023-02-28T09:04:17;-1.40;91.30
42095;DHT22;27753;55.724;37.612;2023-02-28T09:06:43;-1.50;91.40
42095;DHT22;27753;55.724;37.612;2023-02-28T09:09:10;-1.50;91.60
42095;DHT22;27753;55.724;37.612;2023-02-28T09:11:36;-1.50;91.70
42095;DHT22;27753;55.724;37.612;2023-02-28T09:14:03;-1.40;91.90
42095;DHT22;27753;55.724;37.612;2023-02-28T09:16:30;-1.40;91.90
42095;DHT22;27753;55.724;37.612;2023-02-28T09:18:56;-1.40;92.00
42095;DHT22;27753;55.724;37.612;2023-02-28T09:21:22;-1.40;91.80
42095;DHT22;27753;55.724;37.612;2023-02-28T09:23:50;-1.40;91.90
42095;DHT22;27753;55.724;37.612;2023-02-28T09:26:24;-1.30;92.10
42095;DHT22;27753;55.724;37.612;2023-02-28T09:28:51;-1.20;92.00
42095;DHT22;27753;55.724;37.612;2023-02-28T09:31:21;-1.10;92.10
42095;DHT22;27753;55.724;37.612;2023-02-28T09:33:48;-1.00;91.90
42095;DHT22;27753;55.724;37.612;2023-02-28T09:36:14;-1.10;91.60
42095;DHT22;27753;55.724;37.612;2023-02-28T09:38:40;-1.10;91.70
42095;DHT22;27753;55.724;37.612;2023-02-28T09:41:17;-1.10;91.90
42095;DHT22;27753;55.724;37.612;2023-02-28T09:43:47;-1.10;92.00
42095;DHT22;27753;55.724;37.612;2023-02-28T09:46:37;-1.00;92.00
42095;DHT22;27753;55.724;37.612;2023-02-28T09:49:16;-0.90;92.10
42095;DHT22;27753;55.724;37.612;2023-02-28T09:52:03;-0.80;91.90
42095;DHT22;27753;55.724;37.612;2023-02-28T09:54:32;-0.70;91.90
42095;DHT22;27753;55.724;37.612;2023-02-28T09:57:13;-0.70;91.60
42095;DHT22;27753;55.724;37.612;2023-02-28T10:00:17;-0.70;91.70
42095;DHT22;27753;55.724;37.612;2023-02-28T10:03:04;-0.80;91.60
42095;DHT22;27753;55.724;37.612;2023-02-28T10:05:38;-0.90;91.80
42095;DHT22;27753;55.724;37.612;2023-02-28T10:08:25;-1.10;92.00
42095;DHT22;27753;55.724;37.612;2023-02-28T10:10:57;-1.00;92.20
42095;DHT22;27753;55.724;37.612;2023-02-28T10:16:18;-1.10;92.30
42095;DHT22;27753;55.724;37.612;2023-02-28T10:18:56;-1.10;92.40
42095;DHT22;27753;55.724;37.612;2023-02-28T10:21:28;-1.10;92.60
42095;DHT22;27753;55.724;37.612;2023-02-28T10:26:48;-0.90;92.70
42095;DHT22;27753;55.724;37.612;2023-02-28T10:29:14;-0.90;92.50
42095;DHT22;27753;55.724;37.612;2023-02-28T10:31:41;-1.00;92.60
42095;DHT22;27753;55.724;37.612;2023-02-28T10:34:07;-0.90;92.70
42095;DHT22;27753;55.724;37.612;2023-02-28T10:36:37;-0.90;92.70
42095;DHT22;27753;55.724;37.612;2023-02-28T10:39:34;-0.90;92.60
42095;DHT22;27753;55.724;37.612;2023-02-28T10:42:00;-1.00;92.80
42095;DHT22;27753;55.724;37.612;2023-02-28T10:44:25;-0.90;93.00
42095;DHT22;27753;55.724;37.612;2023-02-28T10:46:52;-0.90;93.00
42095;DHT22;27753;55.724;37.612;2023-02-28T10:49:25;-0.90;92.90
42095;DHT22;27753;55.724;37.612;2023-02-28T10:51:55;-0.90;93.00
42095;DHT22;27753;55.724;37.612;2023-02-28T10:54:29;-0.90;93.00
42095;DHT22;27753;55.724;37.612;2023-02-28T10:59:35;-1.00;93.20
42095;DHT22;27753;55.724;37.612;2023-02-28T11:02:01;-1.00;93.20
42095;DHT22;27753;55.724;37.612;2023-02-28T11:07:16;-1.00;93.40
42095;DHT22;27753;55.724;37.612;2023-02-28T11:09:48;-1.00;93.40
42095;DHT22;27753;55.724;37.612;2023-02-28T11:12:29;-1.00;93.50
42095;DHT22;27753;55.724;37.612;2023-02-28T11:15:18;-1.00;93.60
42095;DHT22;27753;55.724;37.612;2023-02-28T11:17:58;-1.00;93.80
42095;DHT22;27753;55.724;37.612;2023-02-28T11:20:29;-1.00;93.80
42095;DHT22;27753;55.724;37.612;2023-02-28T11:22:57;-1.10;93.80
42095;DHT22;27753;55.724;37.612;2023-02-28T11:25:32;-1.10;94.10
42095;DHT22;27753;55.724;37.612;2023-02-28T11:28:00;-1.20;94.20
42095;DHT22;27753;55.724;37.612;2023-02-28T11:30:37;-1.20;94.30
42095;DHT22;27753;55.724;37.612;2023-02-28T11:33:26;-1.20;94.40
42095;DHT22;27753;55.724;37.612;2023-02-28T11:35:57;-1.20;94.50
42095;DHT22;27753;55.724;37.612;2023-02-28T11:38:25;-1.20;94.50
42095;DHT22;27753;55.724;37.612;2023-02-28T11:43:30;-1.20;94.70
42095;DHT22;27753;55.724;37.612;2023-02-28T11:48:58;-1.10;95.10
42095;DHT22;27753;55.724;37.612;2023-02-28T12:11:46;-1.60;98.80
42095;DHT22;27753;55.724;37.612;2023-02-28T12:22:59;-1.80;99.90
42095;DHT22;27753;55.724;37.612;2023-02-28T12:28:35;-1.70;99.90
42095;DHT22;27753;55.724;37.612;2023-02-28T12:31:09;-1.80;99.90
42095;DHT22;27753;55.724;37.612;2023-02-28T12:33:40;-1.80;99.90
42095;DHT22;27753;55.724;37.612;2023-02-28T12:36:11;-1.70;99.90
42095;DHT22;27753;55.724;37.612;2023-02-28T12:41:22;-1.70;99.90
42095;DHT22;27753;55.724;37.612;2023-02-28T12:44:20;-1.80;99.90
42095;DHT22;27753;55.724;37.612;2023-02-28T12:46:50;-1.80;99.90
42095;DHT22;27753;55.724;37.612;2023-02-28T12:49:45;-1.80;99.90
42095;DHT22;27753;55.724;37.612;2023-02-28T12:52:13;-1.80;99.90
42095;DHT22;27753;55.724;37.612;2023-02-28T12:57:40;-1.70;99.90
42095;DHT22;27753;55.724;37.612;2023-02-28T13:00:22;-1.70;99.90
42095;DHT22;27753;55.724;37.612;2023-02-28T13:03:01;-1.60;99.90
42095;DHT22;27753;55.724;37.612;2023-02-28T13:08:17;-1.60;99.90
42095;DHT22;27753;55.724;37.612;2023-02-28T13:10:48;-1.60;99.90
42095;DHT22;27753;55.724;37.612;2023-02-28T13:13:25;-1.50;99.90
42095;DHT22;27753;55.724;37.612;2023-02-28T13:16:08;-1.60;99.90
42095;DHT22;27753;55.724;37.612;2023-02-28T13:18:42;-1.50;99.90
42095;DHT22;27753;55.724;37.612;2023-02-28T13:21:23;-1.50;99.90
42095;DHT22;27753;55.724;37.612;2023-02-28T13:34:26;-1.50;99.90
42095;DHT22;27753;55.724;37.612;2023-02-28T13:39:52;-1.50;99.90
42095;DHT22;27753;55.724;37.612;2023-02-28T13:47:30;-1.40;99.90
42095;DHT22;27753;55.724;37.612;2023-02-28T13:53:16;-1.40;99.90
42095;DHT22;27753;55.724;37.612;2023-02-28T13:58:54;-1.40;99.90
42095;DHT22;27753;55.724;37.612;2023-02-28T14:02:01;-1.40;99.90
42095;DHT22;27753;55.724;37.612;2023-02-28T14:04:54;-1.30;99.90
42095;DHT22;27753;55.724;37.612;2023-02-28T14:07:27;-1.30;99.90
42095;DHT22;27753;55.724;37.612;2023-02-28T14:10:02;-1.30;99.90
42095;DHT22;27753;55.724;37.612;2023-02-28T14:20:47;-1.20;99.90
42095;DHT22;27753;55.724;37.612;2023-02-28T14:23:32;-1.20;99.90
42095;DHT22;27753;55.724;37.612;2023-02-28T14:28:46;-1.10;99.90
42095;DHT22;27753;55.724;37.612;2023-02-28T14:31:23;-1.10;99.90
42095;DHT22;27753;55.724;37.612;2023-02-28T14:36:33;-1.00;99.90
42095;DHT22;27753;55.724;37.612;2023-02-28T14:39:24;-1.00;99.90
42095;DHT22;27753;55.724;37.612;2023-02-28T14:41:50;-1.10;99.90
42095;DHT22;27753;55.724;37.612;2023-02-28T14:44:27;-1.10;99.90
42095;DHT22;27753;55.724;37.612;2023-02-28T14:47:03;-1.10;99.90
42095;DHT22;27753;55.724;37.612;2023-02-28T14:49:42;-1.10;99.90
42095;DHT22;27753;55.724;37.612;2023-02-28T14:52:26;-1.20;99.90
42095;DHT22;27753;55.724;37.612;2023-02-28T14:55:04;-1.20;99.90
42095;DHT22;27753;55.724;37.612;2023-02-28T14:57:34;-1.20;99.90
42095;DHT22;27753;55.724;37.612;2023-02-28T15:00:21;-1.10;99.90
42095;DHT22;27753;55.724;37.612;2023-02-28T15:02:47;-1.10;99.90
42095;DHT22;27753;55.724;37.612;2023-02-28T15:07:39;-1.10;99.90
42095;DHT22;27753;55.724;37.612;2023-02-28T15:10:09;-1.10;99.90
42095;DHT22;27753;55.724;37.612;2023-02-28T15:12:36;-1.10;99.90
42095;DHT22;27753;55.724;37.612;2023-02-28T15:15:02;-1.10;99.90
42095;DHT22;27753;55.724;37.612;2023-02-28T15:17:29;-1.00;99.90
42095;DHT22;27753;55.724;37.612;2023-02-28T15:19:55;-0.90;99.90
42095;DHT22;27753;55.724;37.612;2023-02-28T15:22:35;-0.90;99.90
42095;DHT22;27753;55.724;37.612;2023-02-28T15:25:04;-0.90;99.90
42095;DHT22;27753;55.724;37.612;2023-02-28T15:27:33;-0.90;99.90
42095;DHT22;27753;55.724;37.612;2023-02-28T15:30:07;-0.80;99.90
42095;DHT22;27753;55.724;37.612;2023-02-28T15:32:36;-0.90;99.90
42095;DHT22;27753;55.724;37.612;2023-02-28T15:35:27;-0.80;99.90
42095;DHT22;27753;55.724;37.612;2023-02-28T15:40:29;-0.80;99.90
42095;DHT22;27753;55.724;37.612;2023-02-28T15:43:18;-0.80;99.90
42095;DHT22;27753;55.724;37.612;2023-02-28T15:45:55;-0.70;99.90
42095;DHT22;27753;55.724;37.612;2023-02-28T15:51:04;-0.60;99.90
42095;DHT22;27753;55.724;37.612;2023-02-28T15:53:35;-0.60;99.90
42095;DHT22;27753;55.724;37.612;2023-02-28T15:56:06;-0.60;99.90
42095;DHT22;27753;55.724;37.612;2023-02-28T15:58:35;-0.50;99.90
42095;DHT22;27753;55.724;37.612;2023-02-28T16:01:23;-0.50;99.90
42095;DHT22;27753;55.724;37.612;2023-02-28T16:03:53;-0.50;99.90
42095;DHT22;27753;55.724;37.612;2023-02-28T16:06:37;-0.50;99.90
42095;DHT22;27753;55.724;37.612;2023-02-28T16:09:05;-0.50;99.90
42095;DHT22;27753;55.724;37.612;2023-02-28T16:11:35;-0.50;99.90
42095;DHT22;27753;55.724;37.612;2023-02-28T16:14:03;-0.50;99.90
42095;DHT22;27753;55.724;37.612;2023-02-28T16:16:31;-0.40;99.90
42095;DHT22;27753;55.724;37.612;2023-02-28T16:18:57;-0.40;99.90
42095;DHT22;27753;55.724;37.612;2023-02-28T16:21:24;-0.40;99.90
42095;DHT22;27753;55.724;37.612;2023-02-28T16:23:51;-0.40;99.90
42095;DHT22;27753;55.724;37.612;2023-02-28T16:26:22;-0.40;99.90
42095;DHT22;27753;55.724;37.612;2023-02-28T16:28:49;-0.40;99.90
42095;DHT22;27753;55.724;37.612;2023-02-28T16:31:16;-0.30;99.90
42095;DHT22;27753;55.724;37.612;2023-02-28T16:33:44;-0.30;99.90
42095;DHT22;27753;55.724;37.612;2023-02-28T16:36:20;-0.30;99.90
42095;DHT22;27753;55.724;37.612;2023-02-28T16:38:46;-0.30;99.90
42095;DHT22;27753;55.724;37.612;2023-02-28T16:41:17;-0.30;99.90
42095;DHT22;27753;55.724;37.612;2023-02-28T16:43:47;-0.30;99.90
42095;DHT22;27753;55.724;37.612;2023-02-28T16:46:17;-0.30;99.90
42095;DHT22;27753;55.724;37.612;2023-02-28T16:48:44;-0.20;99.90
42095;DHT22;27753;55.724;37.612;2023-02-28T16:51:15;-0.20;99.90
42095;DHT22;27753;55.724;37.612;2023-02-28T16:53:42;-0.30;99.90
42095;DHT22;27753;55.724;37.612;2023-02-28T16:56:26;-0.30;99.90
42095;DHT22;27753;55.724;37.612;2023-02-28T16:58:58;-0.30;99.90
42095;DHT22;27753;55.724;37.612;2023-02-28T17:01:25;-0.30;99.90
42095;DHT22;27753;55.724;37.612;2023-02-28T17:03:52;-0.30;99.90
42095;DHT22;27753;55.724;37.612;2023-02-28T17:06:27;-0.30;99.90
42095;DHT22;27753;55.724;37.612;2023-02-28T17:08:54;-0.30;99.90
42095;DHT22;27753;55.724;37.612;2023-02-28T17:11:22;-0.30;99.90
42095;DHT22;27753;55.724;37.612;2023-02-28T17:13:48;-0.30;99.90
42095;DHT22;27753;55.724;37.612;2023-02-28T17:16:22;-0.30;99.90
42095;DHT22;27753;55.724;37.612;2023-02-28T17:18:50;-0.30;99.90
42095;DHT22;27753;55.724;37.612;2023-02-28T17:21:16;-0.20;99.90
42095;DHT22;27753;55.724;37.612;2023-02-28T17:23:43;-0.30;99.90
42095;DHT22;27753;55.724;37.612;2023-02-28T17:26:14;-0.30;99.90
42095;DHT22;27753;55.724;37.612;2023-02-28T17:28:40;-0.30;99.90
42095;DHT22;27753;55.724;37.612;2023-02-28T17:31:07;-0.30;99.90
42095;DHT22;27753;55.724;37.612;2023-02-28T17:33:33;-0.30;99.90
42095;DHT22;27753;55.724;37.612;2023-02-28T17:35:59;-0.30;99.90
42095;DHT22;27753;55.724;37.612;2023-02-28T17:38:25;-0.40;99.90
42095;DHT22;27753;55.724;37.612;2023-02-28T17:40:51;-0.40;99.90
42095;DHT22;27753;55.724;37.612;2023-02-28T17:43:24;-0.40;99.90
42095;DHT22;27753;55.724;37.612;2023-02-28T17:45:50;-0.50;99.90
42095;DHT22;27753;55.724;37.612;2023-02-28T17:48:16;-0.50;99.90
42095;DHT22;27753;55.724;37.612;2023-02-28T17:50:42;-0.40;99.90
42095;DHT22;27753;55.724;37.612;2023-02-28T17:53:08;-0.40;99.90
42095;DHT22;27753;55.724;37.612;2023-02-28T17:55:35;-0.30;99.90
42095;DHT22;27753;55.724;37.612;2023-02-28T17:58:01;-0.30;99.90